createdAt,value
2019-03-22T00:00:55.777Z,31.80
2019-03-22T00:01:55.794Z,32.40
2019-03-22T00:02:55.843Z,29.20
2019-03-22T00:03:55.761Z,34.20
2019-03-22T00:04:55.736Z,30.20
2019-03-22T00:05:55.738Z,29.10
2019-03-22T00:06:55.728Z,31.40
2019-03-22T00:07:55.743Z,32.70
2019-03-22T00:08:55.702Z,33.30
2019-03-22T00:09:55.714Z,35.60
2019-03-22T00:10:55.691Z,34.80
2019-03-22T00:11:55.658Z,33.60
2019-03-22T00:12:55.711Z,32.50
2019-03-22T00:13:55.648Z,36.10
2019-03-22T00:14:55.634Z,30.00
2019-03-22T00:15:55.638Z,30.80
2019-03-22T00:16:55.656Z,32.50
2019-03-22T00:17:55.597Z,32.20
2019-03-22T00:18:55.638Z,39.30
2019-03-22T00:19:55.688Z,34.00
2019-03-22T00:20:55.568Z,36.70
2019-03-22T00:21:55.580Z,34.20
2019-03-22T00:22:55.545Z,32.70
2019-03-22T00:23:55.567Z,32.90
2019-03-22T00:24:55.536Z,31.10
2019-03-22T00:25:55.524Z,34.60
2019-03-22T00:26:55.567Z,34.90
2019-03-22T00:27:55.504Z,32.10
2019-03-22T00:28:55.498Z,34.70
2019-03-22T00:29:55.526Z,36.70
2019-03-22T00:30:55.466Z,39.80
2019-03-22T00:31:55.456Z,37.00
2019-03-22T00:32:55.445Z,32.50
2019-03-22T00:33:55.442Z,34.30
2019-03-22T00:34:55.452Z,31.90
2019-03-22T00:35:55.436Z,37.10
2019-03-22T00:36:55.395Z,34.30
2019-03-22T00:37:55.391Z,33.30
2019-03-22T00:38:55.374Z,41.00
2019-03-22T00:39:55.576Z,36.70
2019-03-22T00:40:55.359Z,34.10
2019-03-22T00:41:55.360Z,32.00
2019-03-22T00:42:55.416Z,28.80
2019-03-22T00:43:55.340Z,30.20
2019-03-22T00:44:55.314Z,34.30
2019-03-22T00:45:55.310Z,31.20
2019-03-22T00:46:55.298Z,31.80
2019-03-22T00:47:55.381Z,34.80
2019-03-22T00:48:55.268Z,32.00
2019-03-22T00:49:55.305Z,31.70
2019-03-22T00:50:55.246Z,33.60
2019-03-22T00:51:55.260Z,37.50
2019-03-22T00:52:55.225Z,30.40
2019-03-22T00:53:55.306Z,35.30
2019-03-22T00:54:55.208Z,37.30
2019-03-22T00:55:55.217Z,36.10
2019-03-22T00:56:55.198Z,32.80
2019-03-22T00:57:55.176Z,33.10
2019-03-22T00:58:55.173Z,33.50
2019-03-22T00:59:55.194Z,33.30
2019-03-22T01:00:55.356Z,33.10
2019-03-22T01:01:55.174Z,32.90
2019-03-22T01:02:55.115Z,31.90
2019-03-22T01:03:55.120Z,32.10
2019-03-22T01:04:55.125Z,35.00
2019-03-22T01:05:55.097Z,34.90
2019-03-22T01:06:55.086Z,34.20
2019-03-22T01:07:55.087Z,33.00
2019-03-22T01:08:55.076Z,31.30
2019-03-22T01:09:55.057Z,33.50
2019-03-22T01:10:55.029Z,33.40
2019-03-22T01:11:55.026Z,30.80
2019-03-22T01:12:55.018Z,35.90
2019-03-22T01:13:55.016Z,35.80
2019-03-22T01:14:55.025Z,35.80
2019-03-22T01:15:54.978Z,36.70
2019-03-22T01:16:54.976Z,34.00
2019-03-22T01:17:54.977Z,37.60
2019-03-22T01:18:54.982Z,35.40
2019-03-22T01:19:54.964Z,38.80
2019-03-22T01:20:54.936Z,36.30
2019-03-22T01:21:54.932Z,37.30
2019-03-22T01:22:54.914Z,38.70
2019-03-22T01:23:54.950Z,36.60
2019-03-22T01:24:54.885Z,42.30
2019-03-22T01:25:54.903Z,39.60
2019-03-22T01:26:54.871Z,37.10
2019-03-22T01:27:54.860Z,41.30
2019-03-22T01:28:54.847Z,45.70
2019-03-22T01:29:54.875Z,43.70
2019-03-22T01:30:54.838Z,47.90
2019-03-22T01:31:54.825Z,48.00
2019-03-22T01:32:54.808Z,45.20
2019-03-22T01:33:54.850Z,49.20
2019-03-22T01:34:54.815Z,48.70
2019-03-22T01:35:54.797Z,45.60
2019-03-22T01:36:54.765Z,50.40
2019-03-22T01:37:54.763Z,49.60
2019-03-22T01:38:54.747Z,52.00
2019-03-22T01:39:54.740Z,45.30
2019-03-22T01:40:54.737Z,43.30
2019-03-22T01:41:54.707Z,39.20
2019-03-22T01:42:54.949Z,41.30
2019-03-22T01:43:54.695Z,40.50
2019-03-22T01:44:54.695Z,36.30
2019-03-22T01:45:54.667Z,38.70
2019-03-22T01:46:54.650Z,46.00
2019-03-22T01:47:54.653Z,43.00
2019-03-22T01:48:54.658Z,40.70
2019-03-22T01:49:54.655Z,37.50
2019-03-22T01:50:54.631Z,44.10
2019-03-22T01:51:54.599Z,42.10
2019-03-22T01:52:54.600Z,45.00
2019-03-22T01:53:54.579Z,46.40
2019-03-22T01:54:54.571Z,45.40
2019-03-22T01:55:54.573Z,45.40
2019-03-22T01:56:54.573Z,39.40
2019-03-22T01:57:54.578Z,40.20
2019-03-22T01:58:54.520Z,45.50
2019-03-22T01:59:54.514Z,43.60
2019-03-22T02:00:54.511Z,49.40
2019-03-22T02:01:54.527Z,45.60
2019-03-22T02:02:54.477Z,46.90
2019-03-22T02:03:54.469Z,53.70
2019-03-22T02:04:54.475Z,50.10
2019-03-22T02:05:54.451Z,46.80
2019-03-22T02:06:54.473Z,50.10
2019-03-22T02:07:54.442Z,49.20
2019-03-22T02:08:54.421Z,55.50
2019-03-22T02:09:54.436Z,50.10
2019-03-22T02:10:54.399Z,49.50
2019-03-22T02:11:54.413Z,50.00
2019-03-22T02:12:54.388Z,44.20
2019-03-22T02:13:54.362Z,47.10
2019-03-22T02:14:54.357Z,45.40
2019-03-22T02:15:54.435Z,43.90
2019-03-22T02:16:54.374Z,47.30
2019-03-22T02:17:54.350Z,42.70
2019-03-22T02:18:54.323Z,52.20
2019-03-22T02:19:54.309Z,53.90
2019-03-22T02:20:54.302Z,59.00
2019-03-22T02:21:54.299Z,51.70
2019-03-22T02:22:54.270Z,56.80
2019-03-22T02:23:54.336Z,51.40
2019-03-22T02:24:54.360Z,52.40
2019-03-22T02:25:54.272Z,49.30
2019-03-22T02:26:54.233Z,45.60
2019-03-22T02:28:03.660Z,46.30
2019-03-22T02:28:55.209Z,49.30
2019-03-22T02:29:54.210Z,47.10
2019-03-22T02:30:54.185Z,45.70
2019-03-22T02:31:54.179Z,44.50
2019-03-22T02:32:54.169Z,41.40
2019-03-22T02:33:54.161Z,42.90
2019-03-22T02:34:54.157Z,44.00
2019-03-22T02:35:54.165Z,43.60
2019-03-22T02:36:54.127Z,51.40
2019-03-22T02:37:54.129Z,47.10
2019-03-22T02:38:54.103Z,46.90
2019-03-22T02:39:54.094Z,48.00
2019-03-22T02:40:54.093Z,47.50
2019-03-22T02:41:54.138Z,47.70
2019-03-22T02:42:54.089Z,42.60
2019-03-22T02:43:54.863Z,45.60
2019-03-22T02:44:54.060Z,50.90
2019-03-22T02:45:54.043Z,41.20
2019-03-22T02:46:54.046Z,41.10
2019-03-22T02:47:54.013Z,39.90
2019-03-22T02:48:54.036Z,39.80
2019-03-22T02:49:53.997Z,42.50
2019-03-22T02:50:56.125Z,48.70
2019-03-22T02:51:53.973Z,45.50
2019-03-22T02:52:53.975Z,42.40
2019-03-22T02:53:53.954Z,45.60
2019-03-22T02:54:54.010Z,40.70
2019-03-22T02:55:54.110Z,48.10
2019-03-22T02:56:53.913Z,40.10
2019-03-22T02:57:53.901Z,42.90
2019-03-22T02:58:53.910Z,45.20
2019-03-22T02:59:53.876Z,44.30
2019-03-22T03:00:53.931Z,44.80
2019-03-22T03:01:53.871Z,40.20
2019-03-22T03:02:53.903Z,42.60
2019-03-22T03:03:53.846Z,42.60
2019-03-22T03:04:53.849Z,45.90
2019-03-22T03:05:53.881Z,39.20
2019-03-22T03:06:53.808Z,38.50
2019-03-22T03:07:53.794Z,40.10
2019-03-22T03:08:53.802Z,32.40
2019-03-22T03:09:53.784Z,34.10
2019-03-22T03:10:53.789Z,40.00
2019-03-22T03:11:53.761Z,38.90
2019-03-22T03:12:53.764Z,38.30
2019-03-22T03:13:53.777Z,41.60
2019-03-22T03:14:53.712Z,37.00
2019-03-22T03:15:53.740Z,45.10
2019-03-22T03:16:53.716Z,40.00
2019-03-22T03:17:53.880Z,38.40
2019-03-22T03:18:53.687Z,48.60
2019-03-22T03:19:53.677Z,44.20
2019-03-22T03:20:53.669Z,44.20
2019-03-22T03:21:53.668Z,48.60
2019-03-22T03:22:53.698Z,43.80
2019-03-22T03:23:53.640Z,42.80
2019-03-22T03:24:53.626Z,44.90
2019-03-22T03:25:53.611Z,45.20
2019-03-22T03:26:53.596Z,47.90
2019-03-22T03:27:53.596Z,52.30
2019-03-22T03:28:53.798Z,47.30
2019-03-22T03:29:53.561Z,40.50
2019-03-22T03:30:53.562Z,46.30
2019-03-22T03:31:53.577Z,44.20
2019-03-22T03:32:53.552Z,43.50
2019-03-22T03:33:53.541Z,43.80
2019-03-22T03:34:53.514Z,42.50
2019-03-22T03:35:53.527Z,43.70
2019-03-22T03:36:53.496Z,40.50
2019-03-22T03:37:53.477Z,41.70
2019-03-22T03:38:53.461Z,44.00
2019-03-22T03:39:53.468Z,42.30
2019-03-22T03:40:53.439Z,49.00
2019-03-22T03:41:53.463Z,46.70
2019-03-22T03:42:53.413Z,44.60
2019-03-22T03:43:53.406Z,47.10
2019-03-22T03:44:53.410Z,43.10
2019-03-22T03:45:53.414Z,47.70
2019-03-22T03:46:53.374Z,54.40
2019-03-22T03:47:53.402Z,46.10
2019-03-22T03:48:53.351Z,45.10
2019-03-22T03:49:53.563Z,42.00
2019-03-22T03:50:53.345Z,41.10
2019-03-22T03:51:53.338Z,45.80
2019-03-22T03:52:53.320Z,40.80
2019-03-22T03:53:53.335Z,48.00
2019-03-22T03:54:53.287Z,48.60
2019-03-22T03:55:53.278Z,43.50
2019-03-22T03:56:53.265Z,46.20
2019-03-22T03:57:53.255Z,43.30
2019-03-22T03:58:53.249Z,49.80
2019-03-22T03:59:53.269Z,43.90
2019-03-22T04:00:53.252Z,48.70
2019-03-22T04:01:53.218Z,45.80
2019-03-22T04:02:53.202Z,46.00
2019-03-22T04:03:53.201Z,54.10
2019-03-22T04:04:53.181Z,52.20
2019-03-22T04:05:53.191Z,46.60
2019-03-22T04:06:53.200Z,48.80
2019-03-22T04:07:53.153Z,46.60
2019-03-22T04:08:53.158Z,53.10
2019-03-22T04:09:53.139Z,52.60
2019-03-22T04:10:53.149Z,55.10
2019-03-22T04:11:53.127Z,58.90
2019-03-22T04:12:53.110Z,53.90
2019-03-22T04:13:53.098Z,51.40
2019-03-22T04:14:53.099Z,53.10
2019-03-22T04:15:53.070Z,44.50
2019-03-22T04:16:53.083Z,50.10
2019-03-22T04:17:53.064Z,43.10
2019-03-22T04:18:53.040Z,44.60
2019-03-22T04:19:53.022Z,42.70
2019-03-22T04:20:53.014Z,48.00
2019-03-22T04:21:53.021Z,45.50
2019-03-22T04:22:53.018Z,40.90
2019-03-22T04:23:53.001Z,38.80
2019-03-22T04:24:52.969Z,45.70
2019-03-22T04:25:52.961Z,45.80
2019-03-22T04:26:52.982Z,51.40
2019-03-22T04:27:52.938Z,45.90
2019-03-22T04:29:06.639Z,57.50
2019-03-22T04:29:53.922Z,52.60
2019-03-22T04:30:52.908Z,53.20
2019-03-22T04:31:52.914Z,49.60
2019-03-22T04:32:52.886Z,55.30
2019-03-22T04:33:52.875Z,55.70
2019-03-22T04:34:52.879Z,55.60
2019-03-22T04:35:52.881Z,56.20
2019-03-22T04:36:52.847Z,56.90
2019-03-22T04:37:52.851Z,52.50
2019-03-22T04:38:52.831Z,50.40
2019-03-22T04:39:52.826Z,48.30
2019-03-22T04:40:52.801Z,44.10
2019-03-22T04:41:52.798Z,43.10
2019-03-22T04:42:52.808Z,41.10
2019-03-22T04:43:52.861Z,42.80
2019-03-22T04:44:52.800Z,45.80
2019-03-22T04:45:52.805Z,43.10
2019-03-22T04:46:52.754Z,44.30
2019-03-22T04:47:52.733Z,42.50
2019-03-22T04:48:52.722Z,42.70
2019-03-22T04:49:52.798Z,43.40
2019-03-22T04:50:52.711Z,47.10
2019-03-22T04:51:52.701Z,42.50
2019-03-22T04:52:52.678Z,43.20
2019-03-22T04:53:52.672Z,34.90
2019-03-22T04:54:52.693Z,38.30
2019-03-22T04:55:52.693Z,43.30
2019-03-22T04:56:52.646Z,42.10
2019-03-22T04:57:52.621Z,41.40
2019-03-22T04:58:52.620Z,40.40
2019-03-22T04:59:52.616Z,46.70
2019-03-22T05:00:52.608Z,38.30
2019-03-22T05:01:52.611Z,36.70
2019-03-22T05:02:52.584Z,35.90
2019-03-22T05:03:52.567Z,38.60
2019-03-22T05:04:52.570Z,34.10
2019-03-22T05:05:52.557Z,36.10
2019-03-22T05:06:52.547Z,33.40
2019-03-22T05:07:52.525Z,33.50
2019-03-22T05:08:52.518Z,36.60
2019-03-22T05:09:52.511Z,39.60
2019-03-22T05:10:52.484Z,39.60
2019-03-22T05:11:52.473Z,36.80
2019-03-22T05:12:52.616Z,41.10
2019-03-22T05:13:52.463Z,44.40
2019-03-22T05:14:52.460Z,40.30
2019-03-22T05:15:52.446Z,36.10
2019-03-22T05:16:52.437Z,41.00
2019-03-22T05:17:52.415Z,36.10
2019-03-22T05:18:52.405Z,38.00
2019-03-22T05:19:52.390Z,40.10
2019-03-22T05:20:52.382Z,41.90
2019-03-22T05:21:52.402Z,38.50
2019-03-22T05:22:52.380Z,42.60
2019-03-22T05:23:52.475Z,39.60
2019-03-22T05:24:52.364Z,45.70
2019-03-22T05:25:52.339Z,40.60
2019-03-22T05:26:52.339Z,39.10
2019-03-22T05:27:52.332Z,40.20
2019-03-22T05:28:52.418Z,46.90
2019-03-22T05:29:52.296Z,42.60
2019-03-22T05:30:52.284Z,49.70
2019-03-22T05:31:52.285Z,44.10
2019-03-22T05:32:52.253Z,41.20
2019-03-22T05:33:52.312Z,46.40
2019-03-22T05:34:52.233Z,46.70
2019-03-22T05:35:52.369Z,48.30
2019-03-22T05:36:52.218Z,40.50
2019-03-22T05:37:52.204Z,49.00
2019-03-22T05:38:52.242Z,41.90
2019-03-22T05:39:52.208Z,44.30
2019-03-22T05:40:52.180Z,42.60
2019-03-22T05:41:52.165Z,41.80
2019-03-22T05:42:52.212Z,39.80
2019-03-22T05:43:52.155Z,46.10
2019-03-22T05:44:52.134Z,50.90
2019-03-22T05:45:52.168Z,48.20
2019-03-22T05:46:52.132Z,50.80
2019-03-22T05:47:52.180Z,37.60
2019-03-22T05:48:52.111Z,40.90
2019-03-22T05:49:52.084Z,43.70
2019-03-22T05:50:52.074Z,38.30
2019-03-22T05:51:52.091Z,40.30
2019-03-22T05:52:52.835Z,37.90
2019-03-22T05:53:52.034Z,41.70
2019-03-22T05:54:52.082Z,42.00
2019-03-22T05:55:52.014Z,40.10
2019-03-22T05:56:52.012Z,39.80
2019-03-22T05:57:52.015Z,46.30
2019-03-22T05:58:52.016Z,44.80
2019-03-22T05:59:52.031Z,46.10
2019-03-22T06:00:52.102Z,44.80
2019-03-22T06:01:52.001Z,41.90
2019-03-22T06:02:52.023Z,41.90
2019-03-22T06:03:52.121Z,38.90
2019-03-22T06:04:52.047Z,42.30
2019-03-22T06:05:51.989Z,39.20
2019-03-22T06:06:52.012Z,42.70
2019-03-22T06:07:51.953Z,37.70
2019-03-22T06:08:51.976Z,37.60
2019-03-22T06:09:51.888Z,35.00
2019-03-22T06:10:51.864Z,39.50
2019-03-22T06:11:51.844Z,34.20
2019-03-22T06:12:51.835Z,36.70
2019-03-22T06:13:51.886Z,33.70
2019-03-22T06:14:51.832Z,35.20
2019-03-22T06:15:51.823Z,33.70
2019-03-22T06:16:51.790Z,35.90
2019-03-22T06:17:52.171Z,40.20
2019-03-22T06:18:51.771Z,36.70
2019-03-22T06:19:51.764Z,42.70
2019-03-22T06:20:51.805Z,40.30
2019-03-22T06:21:51.758Z,39.00
2019-03-22T06:22:51.775Z,39.20
2019-03-22T06:23:51.714Z,36.10
2019-03-22T06:24:51.707Z,32.60
2019-03-22T06:25:51.697Z,30.10
2019-03-22T06:26:51.750Z,32.90
2019-03-22T06:27:51.711Z,32.00
2019-03-22T06:28:51.717Z,38.60
2019-03-22T06:29:54.484Z,30.20
2019-03-22T06:30:51.641Z,30.70
2019-03-22T06:31:51.682Z,32.70
2019-03-22T06:32:51.622Z,30.40
2019-03-22T06:33:51.641Z,35.20
2019-03-22T06:34:51.605Z,34.10
2019-03-22T06:35:51.594Z,31.80
2019-03-22T06:36:51.590Z,31.40
2019-03-22T06:37:51.576Z,30.00
2019-03-22T06:38:51.610Z,29.70
2019-03-22T06:39:51.585Z,31.50
2019-03-22T06:40:51.542Z,33.00
2019-03-22T06:41:51.532Z,30.80
2019-03-22T06:42:51.513Z,29.50
2019-03-22T06:43:51.504Z,27.80
2019-03-22T06:44:51.496Z,28.90
2019-03-22T06:45:51.545Z,28.10
2019-03-22T06:46:51.474Z,29.40
2019-03-22T06:47:51.478Z,26.90
2019-03-22T06:48:51.451Z,28.40
2019-03-22T06:49:51.447Z,26.90
2019-03-22T06:50:51.465Z,27.60
2019-03-22T06:51:51.423Z,26.10
2019-03-22T06:52:52.121Z,30.40
2019-03-22T06:53:51.415Z,29.70
2019-03-22T06:54:51.392Z,28.30
2019-03-22T06:55:51.378Z,28.20
2019-03-22T06:56:51.362Z,28.30
2019-03-22T06:57:51.352Z,27.50
2019-03-22T06:58:51.445Z,28.00
2019-03-22T06:59:51.357Z,26.30
2019-03-22T07:00:51.320Z,24.80
2019-03-22T07:01:51.309Z,23.10
2019-03-22T07:02:51.320Z,25.20
2019-03-22T07:03:51.290Z,23.00
2019-03-22T07:04:51.306Z,24.40
2019-03-22T07:05:51.273Z,22.90
2019-03-22T07:06:51.263Z,24.60
2019-03-22T07:07:51.329Z,28.70
2019-03-22T07:08:51.238Z,26.20
2019-03-22T07:09:51.229Z,24.90
2019-03-22T07:10:51.220Z,25.30
2019-03-22T07:11:51.202Z,26.50
2019-03-22T07:12:51.199Z,24.90
2019-03-22T07:13:51.271Z,23.40
2019-03-22T07:14:51.219Z,25.50
2019-03-22T07:15:51.172Z,26.00
2019-03-22T07:16:51.175Z,21.50
2019-03-22T07:17:51.146Z,21.30
2019-03-22T07:18:51.140Z,25.60
2019-03-22T07:19:51.228Z,24.30
2019-03-22T07:20:51.112Z,25.50
2019-03-22T07:21:51.103Z,23.10
2019-03-22T07:22:51.176Z,23.50
2019-03-22T07:23:51.122Z,21.60
2019-03-22T07:24:51.069Z,24.10
2019-03-22T07:25:51.077Z,21.60
2019-03-22T07:26:51.069Z,23.70
2019-03-22T07:27:51.035Z,23.00
2019-03-22T07:28:51.085Z,27.20
2019-03-22T07:29:51.016Z,22.00
2019-03-22T07:30:51.006Z,23.80
2019-03-22T07:31:51.013Z,21.30
2019-03-22T07:32:50.983Z,21.80
2019-03-22T07:33:50.972Z,21.90
2019-03-22T07:34:50.960Z,19.80
2019-03-22T07:35:51.061Z,21.20
2019-03-22T07:36:50.943Z,23.80
2019-03-22T07:37:50.972Z,22.30
2019-03-22T07:38:50.932Z,20.00
2019-03-22T07:39:50.912Z,17.80
2019-03-22T07:40:50.957Z,24.40
2019-03-22T07:41:50.891Z,19.30
2019-03-22T07:42:50.891Z,21.40
2019-03-22T07:43:50.886Z,21.00
2019-03-22T07:44:50.896Z,18.80
2019-03-22T07:45:50.847Z,21.60
2019-03-22T07:46:50.832Z,19.30
2019-03-22T07:47:50.922Z,19.40
2019-03-22T07:48:50.883Z,17.70
2019-03-22T07:49:50.815Z,20.80
2019-03-22T07:50:50.825Z,20.40
2019-03-22T07:51:50.780Z,21.80
2019-03-22T07:52:50.783Z,16.80
2019-03-22T07:53:50.758Z,15.30
2019-03-22T07:54:50.851Z,14.40
2019-03-22T07:55:50.757Z,16.90
2019-03-22T07:56:50.759Z,16.30
2019-03-22T07:57:50.788Z,17.40
2019-03-22T07:58:50.705Z,16.80
2019-03-22T07:59:50.701Z,19.70
2019-03-22T08:00:50.832Z,17.00
2019-03-22T08:01:50.712Z,19.40
2019-03-22T08:02:50.663Z,17.60
2019-03-22T08:03:50.684Z,17.60
2019-03-22T08:04:50.669Z,20.40
2019-03-22T08:05:51.621Z,16.80
2019-03-22T08:06:50.679Z,18.30
2019-03-22T08:07:50.608Z,19.00
2019-03-22T08:08:50.683Z,19.50
2019-03-22T08:09:51.399Z,17.10
2019-03-22T08:10:50.576Z,15.60
2019-03-22T08:11:50.606Z,14.30
2019-03-22T08:12:50.559Z,18.10
2019-03-22T08:13:50.582Z,15.20
2019-03-22T08:14:50.569Z,15.80
2019-03-22T08:15:50.535Z,17.50
2019-03-22T08:16:50.525Z,15.00
2019-03-22T08:17:50.514Z,15.40
2019-03-22T08:18:50.510Z,12.50
2019-03-22T08:19:50.551Z,16.60
2019-03-22T08:20:50.499Z,16.80
2019-03-22T08:21:50.498Z,17.30
2019-03-22T08:22:50.470Z,16.40
2019-03-22T08:23:51.172Z,18.10
2019-03-22T08:24:50.428Z,17.00
2019-03-22T08:25:50.433Z,15.80
2019-03-22T08:26:50.452Z,16.00
2019-03-22T08:27:50.443Z,16.40
2019-03-22T08:28:50.403Z,18.40
2019-03-22T08:29:50.370Z,18.60
2019-03-22T08:30:51.167Z,17.80
2019-03-22T08:31:50.378Z,17.20
2019-03-22T08:32:50.698Z,14.50
2019-03-22T08:33:50.355Z,16.00
2019-03-22T08:34:50.334Z,15.20
2019-03-22T08:35:50.487Z,14.30
2019-03-22T08:36:50.303Z,14.20
2019-03-22T08:37:52.780Z,15.00
2019-03-22T08:38:50.384Z,13.20
2019-03-22T08:39:50.271Z,15.90
2019-03-22T08:40:50.269Z,12.50
2019-03-22T08:41:50.272Z,13.40
2019-03-22T08:42:50.270Z,14.90
2019-03-22T08:43:50.676Z,10.90
2019-03-22T08:44:50.242Z,12.00
2019-03-22T08:45:50.208Z,12.90
2019-03-22T08:46:50.194Z,10.20
2019-03-22T08:47:50.199Z,10.40
2019-03-22T08:48:50.223Z,12.50
2019-03-22T08:49:50.337Z,12.20
2019-03-22T08:50:50.179Z,9.80
2019-03-22T08:51:50.141Z,9.00
2019-03-22T08:52:50.152Z,9.00
2019-03-22T08:53:55.505Z,10.90
2019-03-22T08:54:50.119Z,11.60
2019-03-22T08:55:50.146Z,10.80
2019-03-22T08:56:50.120Z,10.20
2019-03-22T08:57:50.079Z,9.00
2019-03-22T08:58:50.074Z,10.40
2019-03-22T08:59:50.100Z,11.00
2019-03-22T09:00:57.254Z,9.20
2019-03-22T09:01:51.060Z,8.60
2019-03-22T09:02:50.065Z,9.00
2019-03-22T09:03:50.078Z,8.30
2019-03-22T09:04:50.011Z,12.80
2019-03-22T09:05:50.029Z,10.00
2019-03-22T09:06:50.182Z,9.20
2019-03-22T09:07:49.991Z,9.10
2019-03-22T09:08:49.985Z,10.20
2019-03-22T09:09:50.010Z,7.60
2019-03-22T09:10:49.978Z,11.30
2019-03-22T09:11:49.932Z,11.80
2019-03-22T09:12:50.041Z,12.20
2019-03-22T09:13:49.917Z,10.10
2019-03-22T09:14:49.944Z,10.40
2019-03-22T09:15:49.875Z,10.50
2019-03-22T09:16:49.895Z,9.70
2019-03-22T09:17:49.862Z,9.00
2019-03-22T09:18:49.939Z,9.70
2019-03-22T09:19:51.156Z,9.20
2019-03-22T09:20:49.824Z,9.00
2019-03-22T09:21:49.836Z,8.40
2019-03-22T09:22:49.922Z,7.60
2019-03-22T09:23:49.818Z,9.90
2019-03-22T09:24:49.859Z,9.20
2019-03-22T09:25:49.767Z,9.60
2019-03-22T09:26:49.868Z,8.50
2019-03-22T09:27:49.751Z,8.20
2019-03-22T09:28:49.754Z,7.70
2019-03-22T09:29:50.068Z,8.10
2019-03-22T09:30:49.745Z,8.10
2019-03-22T09:31:49.705Z,8.00
2019-03-22T09:32:49.746Z,9.40
2019-03-22T09:33:49.773Z,8.70
2019-03-22T09:34:49.687Z,10.70
2019-03-22T09:35:49.688Z,10.10
2019-03-22T09:36:49.767Z,9.40
2019-03-22T09:37:49.645Z,12.20
2019-03-22T09:38:49.733Z,9.20
2019-03-22T09:39:50.224Z,12.40
2019-03-22T09:40:50.180Z,8.60
2019-03-22T09:41:49.676Z,8.10
2019-03-22T09:42:49.594Z,8.40
2019-03-22T09:43:49.606Z,9.80
2019-03-22T09:44:49.600Z,9.70
2019-03-22T09:45:49.636Z,10.80
2019-03-22T09:46:49.559Z,10.90
2019-03-22T09:47:49.609Z,11.10
2019-03-22T09:48:49.543Z,9.50
2019-03-22T09:49:51.264Z,9.50
2019-03-22T09:50:49.529Z,10.30
2019-03-22T09:51:49.494Z,10.40
2019-03-22T09:52:49.504Z,9.30
2019-03-22T09:53:49.492Z,10.50
2019-03-22T09:54:49.459Z,7.90
2019-03-22T09:55:49.463Z,8.40
2019-03-22T09:56:49.742Z,9.20
2019-03-22T09:57:49.618Z,10.30
2019-03-22T09:58:49.482Z,10.40
2019-03-22T09:59:50.153Z,9.90
2019-03-22T10:00:49.490Z,10.00
2019-03-22T10:01:49.517Z,9.90
2019-03-22T10:02:49.403Z,10.60
2019-03-22T10:03:49.378Z,8.50
2019-03-22T10:04:50.338Z,10.10
2019-03-22T10:05:49.355Z,11.60
2019-03-22T10:06:49.338Z,10.70
2019-03-22T10:07:50.185Z,11.30
2019-03-22T10:08:49.415Z,8.30
2019-03-22T10:09:49.330Z,9.40
2019-03-22T10:10:49.323Z,8.80
2019-03-22T10:11:49.405Z,10.30
2019-03-22T10:12:49.270Z,10.10
2019-03-22T10:13:49.252Z,9.60
2019-03-22T10:14:49.266Z,10.50
2019-03-22T10:15:49.238Z,9.90
2019-03-22T10:16:49.293Z,11.00
2019-03-22T10:17:49.297Z,10.10
2019-03-22T10:18:49.208Z,10.50
2019-03-22T10:19:49.282Z,8.30
2019-03-22T10:20:49.210Z,10.70
2019-03-22T10:21:49.173Z,11.70
2019-03-22T10:22:49.169Z,12.40
2019-03-22T10:23:49.230Z,10.70
2019-03-22T10:24:49.165Z,9.60
2019-03-22T10:25:49.250Z,9.40
2019-03-22T10:26:49.133Z,12.50
2019-03-22T10:27:49.127Z,11.10
2019-03-22T10:28:49.157Z,11.20
2019-03-22T10:29:49.150Z,12.70
2019-03-22T10:30:49.132Z,10.20
2019-03-22T10:31:49.085Z,15.00
2019-03-22T10:32:49.089Z,14.90
2019-03-22T10:33:49.040Z,11.30
2019-03-22T10:34:49.098Z,12.30
2019-03-22T10:35:49.074Z,12.20
2019-03-22T10:36:49.033Z,11.00
2019-03-22T10:37:49.065Z,9.10
2019-03-22T10:38:51.677Z,10.40
2019-03-22T10:39:49.002Z,11.70
2019-03-22T10:40:49.016Z,13.10
2019-03-22T10:41:49.026Z,11.20
2019-03-22T10:42:48.964Z,10.10
2019-03-22T10:43:48.942Z,10.50
2019-03-22T10:44:48.942Z,9.40
2019-03-22T10:45:48.942Z,9.10
2019-03-22T10:46:48.974Z,9.20
2019-03-22T10:47:48.927Z,8.70
2019-03-22T10:48:48.884Z,10.00
2019-03-22T10:49:48.886Z,8.70
2019-03-22T10:50:48.891Z,8.60
2019-03-22T10:51:56.635Z,9.20
2019-03-22T10:52:49.857Z,9.80
2019-03-22T10:53:48.851Z,9.00
2019-03-22T10:54:48.814Z,8.10
2019-03-22T10:55:48.867Z,9.70
2019-03-22T10:56:48.799Z,9.80
2019-03-22T10:57:48.900Z,9.70
2019-03-22T10:58:48.770Z,9.50
2019-03-22T10:59:48.765Z,8.50
2019-03-22T11:00:48.751Z,8.90
2019-03-22T11:02:02.720Z,9.90
2019-03-22T11:02:49.811Z,10.00
2019-03-22T11:03:48.828Z,9.30
2019-03-22T11:04:48.704Z,9.40
2019-03-22T11:05:48.694Z,9.10
2019-03-22T11:06:48.765Z,8.80
2019-03-22T11:07:48.674Z,9.10
2019-03-22T11:08:48.708Z,8.20
2019-03-22T11:09:48.874Z,7.50
2019-03-22T11:10:48.669Z,8.20
2019-03-22T11:11:48.713Z,7.60
2019-03-22T11:12:48.635Z,7.80
2019-03-22T11:13:48.623Z,7.50
2019-03-22T11:14:48.630Z,8.20
2019-03-22T11:15:48.975Z,8.70
2019-03-22T11:16:48.590Z,8.20
2019-03-22T11:17:48.646Z,9.20
2019-03-22T11:18:48.599Z,6.00
2019-03-22T11:19:48.550Z,6.50
2019-03-22T11:20:48.561Z,6.40
2019-03-22T11:21:48.538Z,8.30
2019-03-22T11:22:48.530Z,7.10
2019-03-22T11:23:48.520Z,6.70
2019-03-22T11:24:48.565Z,7.50
2019-03-22T11:25:48.493Z,6.30
2019-03-22T11:26:48.500Z,7.30
2019-03-22T11:27:48.463Z,7.80
2019-03-22T11:28:48.485Z,7.10
2019-03-22T11:29:48.450Z,8.80
2019-03-22T11:30:48.449Z,6.90
2019-03-22T11:31:48.422Z,8.10
2019-03-22T11:32:48.452Z,7.70
2019-03-22T11:33:48.398Z,8.60
2019-03-22T11:34:48.433Z,7.70
2019-03-22T11:35:48.372Z,7.00
2019-03-22T11:36:48.441Z,6.80
2019-03-22T11:37:48.349Z,6.50
2019-03-22T11:38:48.354Z,6.70
2019-03-22T11:39:48.457Z,6.30
2019-03-22T11:40:48.392Z,7.40
2019-03-22T11:41:48.309Z,9.30
2019-03-22T11:42:48.297Z,7.60
2019-03-22T11:43:48.375Z,8.40
2019-03-22T11:44:48.289Z,6.90
2019-03-22T11:45:48.291Z,7.30
2019-03-22T11:46:48.280Z,5.10
2019-03-22T11:47:48.245Z,8.90
2019-03-22T11:48:48.372Z,8.30
2019-03-22T11:49:48.231Z,5.70
2019-03-22T11:50:48.255Z,5.60
2019-03-22T11:51:48.252Z,4.50
2019-03-22T11:52:48.191Z,5.90
2019-03-22T11:53:48.202Z,4.50
2019-03-22T11:54:48.216Z,4.70
2019-03-22T11:55:48.158Z,6.00
2019-03-22T11:56:48.159Z,6.60
2019-03-22T11:57:48.160Z,6.60
2019-03-22T11:58:48.243Z,6.20
2019-03-22T11:59:48.133Z,8.40
2019-03-22T12:00:48.121Z,8.10
2019-03-22T12:01:48.096Z,5.50
2019-03-22T12:02:48.090Z,5.60
2019-03-22T12:03:48.108Z,4.30
2019-03-22T12:04:48.089Z,6.90
2019-03-22T12:05:48.063Z,5.90
2019-03-22T12:06:48.098Z,5.70
2019-03-22T12:07:48.026Z,6.10
2019-03-22T12:08:48.052Z,6.90
2019-03-22T12:09:48.014Z,5.70
2019-03-22T12:10:48.063Z,6.10
2019-03-22T12:11:48.032Z,4.80
2019-03-22T12:12:47.982Z,5.00
2019-03-22T12:13:47.963Z,7.00
2019-03-22T12:14:47.970Z,5.40
2019-03-22T12:15:48.720Z,5.40
2019-03-22T12:16:48.021Z,5.50
2019-03-22T12:17:47.923Z,5.90
2019-03-22T12:18:50.316Z,5.40
2019-03-22T12:19:47.899Z,4.10
2019-03-22T12:20:47.935Z,5.30
2019-03-22T12:21:47.882Z,6.50
2019-03-22T12:22:47.866Z,4.20
2019-03-22T12:23:47.963Z,5.80
2019-03-22T12:24:47.881Z,5.90
2019-03-22T12:25:47.852Z,4.50
2019-03-22T12:26:47.835Z,5.70
2019-03-22T12:27:48.511Z,5.50
2019-03-22T12:28:47.836Z,4.40
2019-03-22T12:29:47.828Z,6.80
2019-03-22T12:30:47.814Z,5.70
2019-03-22T12:31:47.779Z,5.40
2019-03-22T12:32:47.757Z,5.80
2019-03-22T12:33:47.747Z,7.40
2019-03-22T12:34:47.833Z,5.10
2019-03-22T12:35:47.725Z,6.20
2019-03-22T12:36:47.720Z,6.50
2019-03-22T12:37:48.926Z,7.30
2019-03-22T12:38:47.695Z,5.60
2019-03-22T12:39:47.703Z,5.00
2019-03-22T12:40:47.786Z,6.70
2019-03-22T12:41:47.689Z,6.00
2019-03-22T12:42:47.647Z,5.00
2019-03-22T12:43:47.638Z,7.40
2019-03-22T12:44:47.656Z,6.40
2019-03-22T12:45:47.807Z,5.90
2019-03-22T12:46:49.227Z,5.90
2019-03-22T12:47:47.624Z,7.20
2019-03-22T12:48:47.583Z,7.00
2019-03-22T12:49:47.573Z,6.50
2019-03-22T12:50:47.577Z,6.60
2019-03-22T12:51:47.585Z,4.50
2019-03-22T12:52:47.538Z,5.60
2019-03-22T12:53:47.529Z,5.70
2019-03-22T12:54:49.197Z,4.40
2019-03-22T12:55:48.738Z,6.50
2019-03-22T12:56:47.505Z,5.20
2019-03-22T12:57:47.688Z,4.10
2019-03-22T12:58:47.476Z,4.00